Terminal Aerodrome Forecast
Issued by NWS Wilmington, OH

Home | Current Version | Previous Version | Text Only | Print | Product List | Glossary On
Versions: 1 2 3 4 5 6 7 8 9 10 11 12 13 14 15 16
000
FTUS41 KILN 200500
TAFDAY
TAF
KDAY 200527Z 2006/2106 16006KT P6SM SCT250
     FM201100 18008KT P6SM SCT050
     FM201500 21014G22KT P6SM BKN050
     FM202300 22012KT P6SM SCT050
     FM210500 22012KT P6SM VCSH BKN040=

USA.gov is the U.S. government's official web portal to all federal, state and local government web resources and services.